sensor_id;sensor_type;location;lat;lon;timestamp;P1;durP1;ratioP1;P2;durP2;ratioP2
60464;SDS011;46314;52.392;9.758;2023-02-03T00:01:02;24.55;;;18.10;;
60464;SDS011;46314;52.392;9.758;2023-02-03T00:03:29;24.70;;;16.65;;
60464;SDS011;46314;52.392;9.758;2023-02-03T00:05:56;25.35;;;16.42;;
60464;SDS011;46314;52.392;9.758;2023-02-03T00:08:23;26.35;;;18.60;;
60464;SDS011;46314;52.392;9.758;2023-02-03T00:10:49;29.70;;;20.50;;
60464;SDS011;46314;52.392;9.758;2023-02-03T00:13:16;26.83;;;19.48;;
60464;SDS011;46314;52.392;9.758;2023-02-03T00:15:42;30.15;;;20.85;;
60464;SDS011;46314;52.392;9.758;2023-02-03T00:18:09;24.98;;;18.83;;
60464;SDS011;46314;52.392;9.758;2023-02-03T00:20:35;31.33;;;20.00;;
60464;SDS011;46314;52.392;9.758;2023-02-03T00:23:03;25.70;;;20.08;;
60464;SDS011;46314;52.392;9.758;2023-02-03T00:25:30;26.30;;;19.40;;
60464;SDS011;46314;52.392;9.758;2023-02-03T00:27:57;27.05;;;19.63;;
60464;SDS011;46314;52.392;9.758;2023-02-03T00:30:23;36.40;;;23.20;;
60464;SDS011;46314;52.392;9.758;2023-02-03T00:32:50;30.77;;;21.98;;
60464;SDS011;46314;52.392;9.758;2023-02-03T00:35:17;27.30;;;18.70;;
60464;SDS011;46314;52.392;9.758;2023-02-03T00:37:43;29.13;;;21.50;;
60464;SDS011;46314;52.392;9.758;2023-02-03T00:40:17;25.75;;;17.90;;
60464;SDS011;46314;52.392;9.758;2023-02-03T00:42:43;25.45;;;20.30;;
60464;SDS011;46314;52.392;9.758;2023-02-03T00:45:10;28.83;;;21.65;;
60464;SDS011;46314;52.392;9.758;2023-02-03T00:47:36;29.92;;;20.85;;
60464;SDS011;46314;52.392;9.758;2023-02-03T00:50:03;28.42;;;20.85;;
60464;SDS011;46314;52.392;9.758;2023-02-03T00:52:30;35.50;;;21.38;;
60464;SDS011;46314;52.392;9.758;2023-02-03T00:54:57;28.67;;;20.90;;
60464;SDS011;46314;52.392;9.758;2023-02-03T00:57:25;32.10;;;19.70;;
60464;SDS011;46314;52.392;9.758;2023-02-03T00:59:51;28.98;;;20.58;;
60464;SDS011;46314;52.392;9.758;2023-02-03T01:02:17;31.80;;;21.13;;
60464;SDS011;46314;52.392;9.758;2023-02-03T01:04:44;26.65;;;19.90;;
60464;SDS011;46314;52.392;9.758;2023-02-03T01:07:11;28.08;;;21.33;;
60464;SDS011;46314;52.392;9.758;2023-02-03T01:09:37;30.88;;;21.80;;
60464;SDS011;46314;52.392;9.758;2023-02-03T01:12:04;28.23;;;20.85;;
60464;SDS011;46314;52.392;9.758;2023-02-03T01:14:32;31.98;;;22.58;;
60464;SDS011;46314;52.392;9.758;2023-02-03T01:16:59;30.15;;;21.65;;
60464;SDS011;46314;52.392;9.758;2023-02-03T01:19:26;27.27;;;21.00;;
60464;SDS011;46314;52.392;9.758;2023-02-03T01:21:52;31.08;;;20.45;;
60464;SDS011;46314;52.392;9.758;2023-02-03T01:24:19;25.55;;;18.88;;
60464;SDS011;46314;52.392;9.758;2023-02-03T01:26:45;26.25;;;19.08;;
60464;SDS011;46314;52.392;9.758;2023-02-03T01:29:12;29.40;;;20.65;;
60464;SDS011;46314;52.392;9.758;2023-02-03T01:31:40;23.38;;;17.40;;
60464;SDS011;46314;52.392;9.758;2023-02-03T01:34:09;30.70;;;20.80;;
60464;SDS011;46314;52.392;9.758;2023-02-03T01:36:37;25.90;;;19.52;;
60464;SDS011;46314;52.392;9.758;2023-02-03T01:39:04;24.65;;;18.95;;
60464;SDS011;46314;52.392;9.758;2023-02-03T01:41:32;26.67;;;18.83;;
60464;SDS011;46314;52.392;9.758;2023-02-03T01:44:00;31.92;;;19.05;;
60464;SDS011;46314;52.392;9.758;2023-02-03T01:46:29;26.63;;;18.38;;
60464;SDS011;46314;52.392;9.758;2023-02-03T01:49:02;23.85;;;19.23;;
60464;SDS011;46314;52.392;9.758;2023-02-03T01:51:33;26.98;;;19.77;;
60464;SDS011;46314;52.392;9.758;2023-02-03T01:54:00;23.88;;;17.98;;
60464;SDS011;46314;52.392;9.758;2023-02-03T01:56:29;26.48;;;18.73;;
60464;SDS011;46314;52.392;9.758;2023-02-03T01:59:00;26.85;;;18.80;;
60464;SDS011;46314;52.392;9.758;2023-02-03T02:01:26;26.33;;;18.83;;
60464;SDS011;46314;52.392;9.758;2023-02-03T02:03:55;22.35;;;18.50;;
60464;SDS011;46314;52.392;9.758;2023-02-03T02:06:26;25.35;;;18.50;;
60464;SDS011;46314;52.392;9.758;2023-02-03T02:08:52;23.65;;;17.98;;
60464;SDS011;46314;52.392;9.758;2023-02-03T02:11:21;20.02;;;16.65;;
60464;SDS011;46314;52.392;9.758;2023-02-03T02:13:48;24.08;;;17.10;;
60464;SDS011;46314;52.392;9.758;2023-02-03T02:16:19;24.10;;;17.55;;
60464;SDS011;46314;52.392;9.758;2023-02-03T02:19:01;23.33;;;16.35;;
60464;SDS011;46314;52.392;9.758;2023-02-03T02:21:47;25.10;;;15.27;;
60464;SDS011;46314;52.392;9.758;2023-02-03T02:27:45;17.92;;;14.43;;
60464;SDS011;46314;52.392;9.758;2023-02-03T02:30:38;15.85;;;14.10;;
60464;SDS011;46314;52.392;9.758;2023-02-03T02:33:14;18.08;;;13.50;;
60464;SDS011;46314;52.392;9.758;2023-02-03T02:35:54;18.73;;;12.23;;
60464;SDS011;46314;52.392;9.758;2023-02-03T02:38:26;16.55;;;12.45;;
60464;SDS011;46314;52.392;9.758;2023-02-03T02:41:03;18.42;;;13.63;;
60464;SDS011;46314;52.392;9.758;2023-02-03T02:43:34;15.88;;;12.05;;
60464;SDS011;46314;52.392;9.758;2023-02-03T02:46:08;14.07;;;11.70;;
60464;SDS011;46314;52.392;9.758;2023-02-03T02:48:38;17.27;;;12.07;;
60464;SDS011;46314;52.392;9.758;2023-02-03T02:51:10;18.40;;;12.47;;
60464;SDS011;46314;52.392;9.758;2023-02-03T02:53:39;15.27;;;12.93;;
60464;SDS011;46314;52.392;9.758;2023-02-03T02:56:09;21.88;;;14.30;;
60464;SDS011;46314;52.392;9.758;2023-02-03T02:58:40;19.50;;;12.90;;
60464;SDS011;46314;52.392;9.758;2023-02-03T03:01:11;16.63;;;12.23;;
60464;SDS011;46314;52.392;9.758;2023-02-03T03:03:39;19.25;;;12.07;;
60464;SDS011;46314;52.392;9.758;2023-02-03T03:06:06;18.65;;;13.13;;
60464;SDS011;46314;52.392;9.758;2023-02-03T03:08:36;19.48;;;12.90;;
60464;SDS011;46314;52.392;9.758;2023-02-03T03:11:06;17.13;;;12.05;;
60464;SDS011;46314;52.392;9.758;2023-02-03T03:13:34;16.70;;;11.80;;
60464;SDS011;46314;52.392;9.758;2023-02-03T03:16:04;15.98;;;12.40;;
60464;SDS011;46314;52.392;9.758;2023-02-03T03:18:33;16.50;;;12.05;;
60464;SDS011;46314;52.392;9.758;2023-02-03T03:21:05;19.73;;;12.85;;
60464;SDS011;46314;52.392;9.758;2023-02-03T03:23:33;16.38;;;11.25;;
60464;SDS011;46314;52.392;9.758;2023-02-03T03:26:03;19.20;;;12.15;;
60464;SDS011;46314;52.392;9.758;2023-02-03T03:28:39;15.95;;;12.48;;
60464;SDS011;46314;52.392;9.758;2023-02-03T03:31:10;16.67;;;11.75;;
60464;SDS011;46314;52.392;9.758;2023-02-03T03:33:37;21.45;;;12.32;;
60464;SDS011;46314;52.392;9.758;2023-02-03T03:36:07;16.63;;;11.18;;
60464;SDS011;46314;52.392;9.758;2023-02-03T03:38:41;17.90;;;11.15;;
60464;SDS011;46314;52.392;9.758;2023-02-03T03:41:11;18.10;;;11.10;;
60464;SDS011;46314;52.392;9.758;2023-02-03T03:46:13;17.02;;;10.70;;
60464;SDS011;46314;52.392;9.758;2023-02-03T03:48:45;19.98;;;11.63;;
60464;SDS011;46314;52.392;9.758;2023-02-03T03:51:18;17.95;;;11.88;;
60464;SDS011;46314;52.392;9.758;2023-02-03T03:53:48;22.17;;;11.63;;
60464;SDS011;46314;52.392;9.758;2023-02-03T03:56:18;19.25;;;10.98;;
60464;SDS011;46314;52.392;9.758;2023-02-03T03:58:47;12.18;;;9.80;;
60464;SDS011;46314;52.392;9.758;2023-02-03T04:01:15;15.98;;;10.15;;
60464;SDS011;46314;52.392;9.758;2023-02-03T04:03:43;15.10;;;9.85;;
60464;SDS011;46314;52.392;9.758;2023-02-03T04:06:13;15.90;;;11.80;;
60464;SDS011;46314;52.392;9.758;2023-02-03T04:08:41;12.88;;;9.90;;
60464;SDS011;46314;52.392;9.758;2023-02-03T04:11:08;15.90;;;8.57;;
60464;SDS011;46314;52.392;9.758;2023-02-03T04:13:34;15.18;;;10.55;;
60464;SDS011;46314;52.392;9.758;2023-02-03T04:16:01;14.00;;;9.80;;
60464;SDS011;46314;52.392;9.758;2023-02-03T04:18:27;15.55;;;9.85;;
60464;SDS011;46314;52.392;9.758;2023-02-03T04:20:54;11.40;;;9.10;;
60464;SDS011;46314;52.392;9.758;2023-02-03T04:23:20;15.13;;;8.60;;
60464;SDS011;46314;52.392;9.758;2023-02-03T04:25:48;12.25;;;8.32;;
60464;SDS011;46314;52.392;9.758;2023-02-03T04:28:14;15.52;;;9.30;;
60464;SDS011;46314;52.392;9.758;2023-02-03T04:30:41;11.98;;;8.35;;
60464;SDS011;46314;52.392;9.758;2023-02-03T04:33:07;11.68;;;7.90;;
60464;SDS011;46314;52.392;9.758;2023-02-03T04:35:33;15.68;;;8.85;;
60464;SDS011;46314;52.392;9.758;2023-02-03T04:38:00;15.77;;;8.57;;
60464;SDS011;46314;52.392;9.758;2023-02-03T04:40:26;15.20;;;8.80;;
60464;SDS011;46314;52.392;9.758;2023-02-03T04:42:54;12.73;;;8.85;;
60464;SDS011;46314;52.392;9.758;2023-02-03T04:45:21;16.33;;;9.15;;
60464;SDS011;46314;52.392;9.758;2023-02-03T04:47:50;14.30;;;8.48;;
60464;SDS011;46314;52.392;9.758;2023-02-03T04:50:19;12.50;;;9.50;;
60464;SDS011;46314;52.392;9.758;2023-02-03T04:52:46;9.43;;;7.53;;
60464;SDS011;46314;52.392;9.758;2023-02-03T04:55:12;16.83;;;9.27;;
60464;SDS011;46314;52.392;9.758;2023-02-03T04:57:38;14.60;;;8.77;;
60464;SDS011;46314;52.392;9.758;2023-02-03T05:00:07;11.60;;;8.07;;
60464;SDS011;46314;52.392;9.758;2023-02-03T05:02:35;16.98;;;9.20;;
60464;SDS011;46314;52.392;9.758;2023-02-03T05:05:01;11.98;;;8.65;;
60464;SDS011;46314;52.392;9.758;2023-02-03T05:07:28;13.93;;;9.10;;
60464;SDS011;46314;52.392;9.758;2023-02-03T05:09:54;13.68;;;8.40;;
60464;SDS011;46314;52.392;9.758;2023-02-03T05:12:21;14.88;;;9.20;;
60464;SDS011;46314;52.392;9.758;2023-02-03T05:14:47;14.65;;;7.78;;
60464;SDS011;46314;52.392;9.758;2023-02-03T05:17:15;13.73;;;8.15;;
60464;SDS011;46314;52.392;9.758;2023-02-03T05:19:41;11.68;;;8.20;;
60464;SDS011;46314;52.392;9.758;2023-02-03T05:22:07;15.75;;;9.63;;
60464;SDS011;46314;52.392;9.758;2023-02-03T05:24:34;12.75;;;7.55;;
60464;SDS011;46314;52.392;9.758;2023-02-03T05:27:00;13.85;;;8.85;;
60464;SDS011;46314;52.392;9.758;2023-02-03T05:29:27;13.13;;;9.02;;
60464;SDS011;46314;52.392;9.758;2023-02-03T05:31:53;13.02;;;7.55;;
60464;SDS011;46314;52.392;9.758;2023-02-03T05:34:21;14.13;;;8.27;;
60464;SDS011;46314;52.392;9.758;2023-02-03T05:36:47;10.40;;;7.53;;
60464;SDS011;46314;52.392;9.758;2023-02-03T05:39:14;13.93;;;7.38;;
60464;SDS011;46314;52.392;9.758;2023-02-03T05:41:40;12.13;;;7.65;;
60464;SDS011;46314;52.392;9.758;2023-02-03T05:44:06;12.82;;;7.88;;
60464;SDS011;46314;52.392;9.758;2023-02-03T05:46:33;12.55;;;6.97;;
60464;SDS011;46314;52.392;9.758;2023-02-03T05:49:00;11.63;;;7.57;;
60464;SDS011;46314;52.392;9.758;2023-02-03T05:51:27;13.43;;;7.85;;
60464;SDS011;46314;52.392;9.758;2023-02-03T05:53:54;9.88;;;6.65;;
60464;SDS011;46314;52.392;9.758;2023-02-03T05:56:20;11.88;;;7.32;;
60464;SDS011;46314;52.392;9.758;2023-02-03T05:58:47;10.20;;;7.22;;
60464;SDS011;46314;52.392;9.758;2023-02-03T06:01:13;12.20;;;7.57;;
60464;SDS011;46314;52.392;9.758;2023-02-03T06:03:39;9.27;;;6.88;;
60464;SDS011;46314;52.392;9.758;2023-02-03T06:06:09;11.85;;;7.13;;
60464;SDS011;46314;52.392;9.758;2023-02-03T06:08:37;15.43;;;7.05;;
60464;SDS011;46314;52.392;9.758;2023-02-03T06:11:03;11.38;;;6.70;;
60464;SDS011;46314;52.392;9.758;2023-02-03T06:13:30;14.82;;;7.35;;
60464;SDS011;46314;52.392;9.758;2023-02-03T06:15:56;13.25;;;6.00;;
60464;SDS011;46314;52.392;9.758;2023-02-03T06:18:23;13.20;;;7.32;;
60464;SDS011;46314;52.392;9.758;2023-02-03T06:20:49;12.38;;;6.93;;
60464;SDS011;46314;52.392;9.758;2023-02-03T06:23:16;12.90;;;6.97;;
60464;SDS011;46314;52.392;9.758;2023-02-03T06:25:44;14.63;;;8.25;;
60464;SDS011;46314;52.392;9.758;2023-02-03T06:28:13;12.40;;;7.55;;
60464;SDS011;46314;52.392;9.758;2023-02-03T06:30:39;17.98;;;8.98;;
60464;SDS011;46314;52.392;9.758;2023-02-03T06:33:06;14.60;;;7.78;;
60464;SDS011;46314;52.392;9.758;2023-02-03T06:35:33;17.20;;;8.10;;
60464;SDS011;46314;52.392;9.758;2023-02-03T06:37:59;12.50;;;6.32;;
60464;SDS011;46314;52.392;9.758;2023-02-03T06:40:26;9.50;;;7.60;;
60464;SDS011;46314;52.392;9.758;2023-02-03T06:42:55;12.85;;;8.10;;
60464;SDS011;46314;52.392;9.758;2023-02-03T06:45:21;13.27;;;7.60;;
60464;SDS011;46314;52.392;9.758;2023-02-03T06:47:48;10.88;;;7.00;;
60464;SDS011;46314;52.392;9.758;2023-02-03T06:50:14;12.68;;;7.00;;
60464;SDS011;46314;52.392;9.758;2023-02-03T06:52:41;12.10;;;7.10;;
60464;SDS011;46314;52.392;9.758;2023-02-03T06:55:07;12.70;;;7.45;;
60464;SDS011;46314;52.392;9.758;2023-02-03T06:57:34;11.95;;;6.60;;
60464;SDS011;46314;52.392;9.758;2023-02-03T07:00:03;13.15;;;7.10;;
60464;SDS011;46314;52.392;9.758;2023-02-03T07:02:30;12.35;;;7.18;;
60464;SDS011;46314;52.392;9.758;2023-02-03T07:04:56;18.55;;;6.75;;
60464;SDS011;46314;52.392;9.758;2023-02-03T07:07:23;12.23;;;7.53;;
60464;SDS011;46314;52.392;9.758;2023-02-03T07:09:49;12.25;;;7.80;;
60464;SDS011;46314;52.392;9.758;2023-02-03T07:12:15;12.23;;;7.20;;
60464;SDS011;46314;52.392;9.758;2023-02-03T07:14:42;11.75;;;6.28;;
60464;SDS011;46314;52.392;9.758;2023-02-03T07:17:10;11.95;;;6.78;;
60464;SDS011;46314;52.392;9.758;2023-02-03T07:19:36;11.05;;;7.95;;
60464;SDS011;46314;52.392;9.758;2023-02-03T07:22:02;11.35;;;6.82;;
60464;SDS011;46314;52.392;9.758;2023-02-03T07:24:29;10.90;;;7.15;;
60464;SDS011;46314;52.392;9.758;2023-02-03T07:26:55;11.93;;;7.30;;
60464;SDS011;46314;52.392;9.758;2023-02-03T07:29:22;9.32;;;7.15;;
60464;SDS011;46314;52.392;9.758;2023-02-03T07:31:48;10.70;;;7.47;;
60464;SDS011;46314;52.392;9.758;2023-02-03T07:34:16;12.85;;;8.07;;
60464;SDS011;46314;52.392;9.758;2023-02-03T07:36:43;10.73;;;6.70;;
60464;SDS011;46314;52.392;9.758;2023-02-03T07:39:09;11.02;;;6.70;;
60464;SDS011;46314;52.392;9.758;2023-02-03T07:41:35;9.30;;;6.07;;
60464;SDS011;46314;52.392;9.758;2023-02-03T07:44:02;14.00;;;8.02;;
60464;SDS011;46314;52.392;9.758;2023-02-03T07:46:29;8.90;;;6.72;;
60464;SDS011;46314;52.392;9.758;2023-02-03T07:48:55;10.05;;;6.65;;
60464;SDS011;46314;52.392;9.758;2023-02-03T07:51:23;10.98;;;6.53;;
60464;SDS011;46314;52.392;9.758;2023-02-03T07:53:49;9.18;;;6.38;;
60464;SDS011;46314;52.392;9.758;2023-02-03T07:56:16;9.80;;;6.00;;
60464;SDS011;46314;52.392;9.758;2023-02-03T07:58:42;11.95;;;7.10;;
60464;SDS011;46314;52.392;9.758;2023-02-03T08:01:09;10.30;;;7.07;;
60464;SDS011;46314;52.392;9.758;2023-02-03T08:03:37;9.73;;;6.95;;
60464;SDS011;46314;52.392;9.758;2023-02-03T08:06:03;10.20;;;6.93;;
60464;SDS011;46314;52.392;9.758;2023-02-03T08:08:32;6.63;;;5.78;;
60464;SDS011;46314;52.392;9.758;2023-02-03T08:10:58;9.63;;;5.70;;
60464;SDS011;46314;52.392;9.758;2023-02-03T08:13:24;11.20;;;6.10;;
60464;SDS011;46314;52.392;9.758;2023-02-03T08:15:51;7.95;;;6.25;;
60464;SDS011;46314;52.392;9.758;2023-02-03T08:18:18;9.43;;;6.43;;
60464;SDS011;46314;52.392;9.758;2023-02-03T08:20:45;8.88;;;6.70;;
60464;SDS011;46314;52.392;9.758;2023-02-03T08:23:12;9.82;;;6.25;;
60464;SDS011;46314;52.392;9.758;2023-02-03T08:25:40;11.95;;;7.05;;
60464;SDS011;46314;52.392;9.758;2023-02-03T08:28:07;10.00;;;7.32;;
60464;SDS011;46314;52.392;9.758;2023-02-03T08:30:34;11.07;;;5.70;;
60464;SDS011;46314;52.392;9.758;2023-02-03T08:33:00;11.43;;;6.30;;
60464;SDS011;46314;52.392;9.758;2023-02-03T08:35:27;9.27;;;6.70;;
60464;SDS011;46314;52.392;9.758;2023-02-03T08:37:53;10.93;;;7.45;;
60464;SDS011;46314;52.392;9.758;2023-02-03T08:40:20;12.68;;;7.60;;
60464;SDS011;46314;52.392;9.758;2023-02-03T08:42:48;10.60;;;6.68;;
60464;SDS011;46314;52.392;9.758;2023-02-03T08:45:14;8.95;;;6.07;;
60464;SDS011;46314;52.392;9.758;2023-02-03T08:47:41;14.38;;;6.57;;
60464;SDS011;46314;52.392;9.758;2023-02-03T08:50:08;9.93;;;5.53;;
60464;SDS011;46314;52.392;9.758;2023-02-03T08:52:35;9.18;;;6.43;;
60464;SDS011;46314;52.392;9.758;2023-02-03T08:55:01;8.85;;;6.18;;
60464;SDS011;46314;52.392;9.758;2023-02-03T08:57:30;13.38;;;6.50;;
60464;SDS011;46314;52.392;9.758;2023-02-03T08:59:59;8.68;;;7.10;;
60464;SDS011;46314;52.392;9.758;2023-02-03T09:02:25;9.43;;;6.72;;
60464;SDS011;46314;52.392;9.758;2023-02-03T09:04:52;11.18;;;6.82;;
60464;SDS011;46314;52.392;9.758;2023-02-03T09:07:18;12.15;;;8.55;;
60464;SDS011;46314;52.392;9.758;2023-02-03T09:09:45;11.82;;;7.40;;
60464;SDS011;46314;52.392;9.758;2023-02-03T09:12:11;13.02;;;6.32;;
60464;SDS011;46314;52.392;9.758;2023-02-03T09:14:38;11.65;;;5.43;;
60464;SDS011;46314;52.392;9.758;2023-02-03T09:17:06;9.20;;;5.60;;
60464;SDS011;46314;52.392;9.758;2023-02-03T09:19:32;15.95;;;6.13;;
60464;SDS011;46314;52.392;9.758;2023-02-03T09:22:01;11.70;;;6.25;;
60464;SDS011;46314;52.392;9.758;2023-02-03T09:24:31;15.35;;;6.20;;
60464;SDS011;46314;52.392;9.758;2023-02-03T09:26:58;11.25;;;5.82;;
60464;SDS011;46314;52.392;9.758;2023-02-03T09:29:24;9.75;;;5.28;;
60464;SDS011;46314;52.392;9.758;2023-02-03T09:31:51;10.45;;;5.85;;
60464;SDS011;46314;52.392;9.758;2023-02-03T09:34:19;11.63;;;5.20;;
60464;SDS011;46314;52.392;9.758;2023-02-03T09:36:46;10.85;;;5.80;;
60464;SDS011;46314;52.392;9.758;2023-02-03T09:39:12;12.65;;;4.43;;
60464;SDS011;46314;52.392;9.758;2023-02-03T09:41:42;10.30;;;5.18;;
60464;SDS011;46314;52.392;9.758;2023-02-03T09:44:16;14.00;;;4.68;;
60464;SDS011;46314;52.392;9.758;2023-02-03T09:46:47;10.50;;;4.85;;
60464;SDS011;46314;52.392;9.758;2023-02-03T09:49:23;11.02;;;5.75;;
60464;SDS011;46314;52.392;9.758;2023-02-03T09:51:52;11.40;;;5.38;;
60464;SDS011;46314;52.392;9.758;2023-02-03T09:54:25;7.13;;;5.13;;
60464;SDS011;46314;52.392;9.758;2023-02-03T09:56:59;9.38;;;4.32;;
60464;SDS011;46314;52.392;9.758;2023-02-03T09:59:30;8.27;;;3.92;;
60464;SDS011;46314;52.392;9.758;2023-02-03T10:02:01;9.85;;;3.92;;
60464;SDS011;46314;52.392;9.758;2023-02-03T10:04:47;8.98;;;4.47;;
60464;SDS011;46314;52.392;9.758;2023-02-03T10:07:24;10.38;;;4.80;;
60464;SDS011;46314;52.392;9.758;2023-02-03T10:09:59;11.20;;;4.70;;
60464;SDS011;46314;52.392;9.758;2023-02-03T10:12:41;10.52;;;4.88;;
60464;SDS011;46314;52.392;9.758;2023-02-03T10:15:32;9.23;;;4.25;;
60464;SDS011;46314;52.392;9.758;2023-02-03T10:18:10;8.45;;;3.60;;
60464;SDS011;46314;52.392;9.758;2023-02-03T10:20:41;11.20;;;4.78;;
60464;SDS011;46314;52.392;9.758;2023-02-03T10:23:12;14.20;;;5.45;;
60464;SDS011;46314;52.392;9.758;2023-02-03T10:25:43;10.52;;;3.38;;
60464;SDS011;46314;52.392;9.758;2023-02-03T10:28:14;8.32;;;3.88;;
60464;SDS011;46314;52.392;9.758;2023-02-03T10:30:44;8.57;;;2.60;;
60464;SDS011;46314;52.392;9.758;2023-02-03T10:33:15;9.60;;;4.40;;
60464;SDS011;46314;52.392;9.758;2023-02-03T10:35:47;12.52;;;3.83;;
60464;SDS011;46314;52.392;9.758;2023-02-03T10:38:18;8.02;;;3.40;;
60464;SDS011;46314;52.392;9.758;2023-02-03T10:40:54;10.85;;;3.30;;
60464;SDS011;46314;52.392;9.758;2023-02-03T10:43:20;8.23;;;3.47;;
60464;SDS011;46314;52.392;9.758;2023-02-03T10:45:47;6.90;;;2.83;;
60464;SDS011;46314;52.392;9.758;2023-02-03T10:48:14;7.25;;;3.25;;
60464;SDS011;46314;52.392;9.758;2023-02-03T10:50:44;12.25;;;3.40;;
60464;SDS011;46314;52.392;9.758;2023-02-03T10:53:19;7.40;;;2.65;;
60464;SDS011;46314;52.392;9.758;2023-02-03T10:55:48;10.43;;;3.42;;
60464;SDS011;46314;52.392;9.758;2023-02-03T10:58:20;12.43;;;3.33;;
60464;SDS011;46314;52.392;9.758;2023-02-03T11:00:53;8.70;;;3.22;;
60464;SDS011;46314;52.392;9.758;2023-02-03T11:03:22;7.13;;;2.78;;
60464;SDS011;46314;52.392;9.758;2023-02-03T11:06:06;6.60;;;2.83;;
60464;SDS011;46314;52.392;9.758;2023-02-03T11:08:35;6.85;;;2.78;;
60464;SDS011;46314;52.392;9.758;2023-02-03T11:11:04;11.65;;;4.25;;
60464;SDS011;46314;52.392;9.758;2023-02-03T11:13:32;11.10;;;4.35;;
60464;SDS011;46314;52.392;9.758;2023-02-03T11:15:59;11.73;;;3.95;;
60464;SDS011;46314;52.392;9.758;2023-02-03T11:18:34;12.95;;;3.83;;
60464;SDS011;46314;52.392;9.758;2023-02-03T11:21:07;11.85;;;3.10;;
60464;SDS011;46314;52.392;9.758;2023-02-03T11:23:35;14.43;;;3.85;;
60464;SDS011;46314;52.392;9.758;2023-02-03T11:26:09;12.68;;;3.58;;
60464;SDS011;46314;52.392;9.758;2023-02-03T11:28:40;14.85;;;4.45;;
60464;SDS011;46314;52.392;9.758;2023-02-03T11:31:14;14.07;;;4.32;;
60464;SDS011;46314;52.392;9.758;2023-02-03T11:33:45;12.35;;;3.55;;
60464;SDS011;46314;52.392;9.758;2023-02-03T11:36:14;18.75;;;4.65;;
60464;SDS011;46314;52.392;9.758;2023-02-03T11:38:42;10.38;;;4.45;;
60464;SDS011;46314;52.392;9.758;2023-02-03T11:41:14;15.10;;;4.30;;
60464;SDS011;46314;52.392;9.758;2023-02-03T11:43:41;12.13;;;4.40;;
60464;SDS011;46314;52.392;9.758;2023-02-03T11:46:08;12.15;;;2.97;;
60464;SDS011;46314;52.392;9.758;2023-02-03T11:48:35;18.73;;;4.38;;
60464;SDS011;46314;52.392;9.758;2023-02-03T11:51:04;16.63;;;5.00;;
60464;SDS011;46314;52.392;9.758;2023-02-03T11:53:47;12.68;;;4.28;;
60464;SDS011;46314;52.392;9.758;2023-02-03T11:56:31;16.20;;;4.45;;
60464;SDS011;46314;52.392;9.758;2023-02-03T11:59:17;15.68;;;4.93;;
60464;SDS011;46314;52.392;9.758;2023-02-03T12:02:00;15.98;;;4.32;;
60464;SDS011;46314;52.392;9.758;2023-02-03T12:07:42;23.98;;;5.20;;
60464;SDS011;46314;52.392;9.758;2023-02-03T12:10:24;16.65;;;4.50;;
60464;SDS011;46314;52.392;9.758;2023-02-03T12:13:01;16.73;;;4.53;;
60464;SDS011;46314;52.392;9.758;2023-02-03T12:15:41;12.48;;;3.60;;
60464;SDS011;46314;52.392;9.758;2023-02-03T12:18:20;19.92;;;5.30;;
60464;SDS011;46314;52.392;9.758;2023-02-03T12:21:04;21.05;;;5.38;;
60464;SDS011;46314;52.392;9.758;2023-02-03T12:23:40;15.35;;;4.75;;
60464;SDS011;46314;52.392;9.758;2023-02-03T12:26:17;28.05;;;5.30;;
60464;SDS011;46314;52.392;9.758;2023-02-03T12:31:20;15.93;;;4.13;;
60464;SDS011;46314;52.392;9.758;2023-02-03T12:33:54;19.48;;;4.38;;
60464;SDS011;46314;52.392;9.758;2023-02-03T12:36:27;16.33;;;4.77;;
60464;SDS011;46314;52.392;9.758;2023-02-03T12:38:58;20.58;;;4.78;;
60464;SDS011;46314;52.392;9.758;2023-02-03T12:41:34;18.48;;;5.38;;
60464;SDS011;46314;52.392;9.758;2023-02-03T12:44:07;18.35;;;4.82;;
60464;SDS011;46314;52.392;9.758;2023-02-03T12:46:41;25.25;;;5.15;;
60464;SDS011;46314;52.392;9.758;2023-02-03T12:49:12;19.10;;;5.30;;
60464;SDS011;46314;52.392;9.758;2023-02-03T12:51:54;16.70;;;4.72;;
60464;SDS011;46314;52.392;9.758;2023-02-03T12:54:28;20.90;;;5.50;;
60464;SDS011;46314;52.392;9.758;2023-02-03T12:57:06;13.73;;;3.97;;
60464;SDS011;46314;52.392;9.758;2023-02-03T12:59:39;18.77;;;5.65;;
60464;SDS011;46314;52.392;9.758;2023-02-03T13:02:10;19.42;;;5.75;;
60464;SDS011;46314;52.392;9.758;2023-02-03T13:04:42;17.08;;;5.03;;
60464;SDS011;46314;52.392;9.758;2023-02-03T13:07:15;12.57;;;4.15;;
60464;SDS011;46314;52.392;9.758;2023-02-03T13:09:47;21.02;;;4.15;;
60464;SDS011;46314;52.392;9.758;2023-02-03T13:12:23;20.58;;;5.45;;
60464;SDS011;46314;52.392;9.758;2023-02-03T13:14:55;14.93;;;4.40;;
60464;SDS011;46314;52.392;9.758;2023-02-03T13:17:25;17.27;;;5.15;;
60464;SDS011;46314;52.392;9.758;2023-02-03T13:19:55;16.50;;;4.43;;
60464;SDS011;46314;52.392;9.758;2023-02-03T13:22:25;17.20;;;4.55;;
60464;SDS011;46314;52.392;9.758;2023-02-03T13:24:53;22.95;;;6.47;;
60464;SDS011;46314;52.392;9.758;2023-02-03T13:27:36;17.25;;;5.85;;
60464;SDS011;46314;52.392;9.758;2023-02-03T13:30:27;19.00;;;6.15;;
60464;SDS011;46314;52.392;9.758;2023-02-03T13:33:10;17.58;;;5.00;;
60464;SDS011;46314;52.392;9.758;2023-02-03T13:35:51;23.15;;;6.30;;
60464;SDS011;46314;52.392;9.758;2023-02-03T13:38:31;20.50;;;5.05;;
60464;SDS011;46314;52.392;9.758;2023-02-03T13:41:18;13.82;;;4.95;;
60464;SDS011;46314;52.392;9.758;2023-02-03T13:43:51;15.00;;;4.35;;
60464;SDS011;46314;52.392;9.758;2023-02-03T13:46:20;17.70;;;5.32;;
60464;SDS011;46314;52.392;9.758;2023-02-03T13:48:49;16.27;;;4.28;;
60464;SDS011;46314;52.392;9.758;2023-02-03T13:51:19;11.77;;;4.10;;
60464;SDS011;46314;52.392;9.758;2023-02-03T13:53:48;16.20;;;4.13;;
60464;SDS011;46314;52.392;9.758;2023-02-03T13:56:18;12.82;;;4.47;;
60464;SDS011;46314;52.392;9.758;2023-02-03T13:58:59;18.13;;;3.58;;
60464;SDS011;46314;52.392;9.758;2023-02-03T14:01:29;16.00;;;4.00;;
60464;SDS011;46314;52.392;9.758;2023-02-03T14:03:57;13.77;;;4.72;;
60464;SDS011;46314;52.392;9.758;2023-02-03T14:09:22;13.95;;;3.70;;
60464;SDS011;46314;52.392;9.758;2023-02-03T14:12:11;16.05;;;3.88;;
60464;SDS011;46314;52.392;9.758;2023-02-03T14:14:57;17.55;;;4.82;;
60464;SDS011;46314;52.392;9.758;2023-02-03T14:20:40;14.07;;;4.18;;
60464;SDS011;46314;52.392;9.758;2023-02-03T14:23:10;18.17;;;4.43;;
60464;SDS011;46314;52.392;9.758;2023-02-03T14:25:41;15.02;;;4.65;;
60464;SDS011;46314;52.392;9.758;2023-02-03T14:28:12;15.10;;;3.78;;
60464;SDS011;46314;52.392;9.758;2023-02-03T14:31:02;17.10;;;5.10;;
60464;SDS011;46314;52.392;9.758;2023-02-03T14:33:45;12.60;;;3.92;;
60464;SDS011;46314;52.392;9.758;2023-02-03T14:36:25;19.42;;;5.32;;
60464;SDS011;46314;52.392;9.758;2023-02-03T14:38:53;15.00;;;4.57;;
60464;SDS011;46314;52.392;9.758;2023-02-03T14:41:22;12.57;;;4.82;;
60464;SDS011;46314;52.392;9.758;2023-02-03T14:43:56;17.23;;;4.72;;
60464;SDS011;46314;52.392;9.758;2023-02-03T14:46:37;17.75;;;3.90;;
60464;SDS011;46314;52.392;9.758;2023-02-03T14:49:27;18.73;;;4.57;;
60464;SDS011;46314;52.392;9.758;2023-02-03T14:52:11;14.07;;;4.10;;
60464;SDS011;46314;52.392;9.758;2023-02-03T14:54:49;10.95;;;4.95;;
60464;SDS011;46314;52.392;9.758;2023-02-03T14:57:37;13.40;;;4.47;;
60464;SDS011;46314;52.392;9.758;2023-02-03T15:00:23;13.10;;;4.43;;
60464;SDS011;46314;52.392;9.758;2023-02-03T15:05:39;22.63;;;5.88;;
60464;SDS011;46314;52.392;9.758;2023-02-03T15:10:58;18.92;;;4.43;;
60464;SDS011;46314;52.392;9.758;2023-02-03T15:13:39;17.33;;;4.18;;